createdAt,value
2022-07-29T00:02:17.097Z,97563.22
2022-07-29T00:04:44.208Z,97567.31
2022-07-29T00:07:11.135Z,97553.97
2022-07-29T00:09:43.056Z,97557.06
2022-07-29T00:12:26.117Z,97567.13
2022-07-29T00:14:55.070Z,97570.41
2022-07-29T00:17:22.400Z,97569.81
2022-07-29T00:19:49.082Z,97573.72
2022-07-29T00:22:15.953Z,97572.44
2022-07-29T00:24:42.772Z,97570.81
2022-07-29T00:27:09.462Z,97569.19
2022-07-29T00:29:36.214Z,97573.28
2022-07-29T00:32:03.816Z,97565.91
2022-07-29T00:34:49.706Z,97565.09
2022-07-29T00:37:16.465Z,97565.06
2022-07-29T00:39:43.614Z,97560.13
2022-07-29T00:42:10.833Z,97565.28
2022-07-29T00:44:42.159Z,97558.88
2022-07-29T00:47:10.741Z,97548.63
2022-07-29T00:49:39.556Z,97557.69
2022-07-29T00:52:07.622Z,97553.94
2022-07-29T00:54:35.240Z,97556.22
2022-07-29T00:57:04.222Z,97554.75
2022-07-29T00:59:34.786Z,97549.25
2022-07-29T01:02:03.399Z,97552.94
2022-07-29T01:04:31.830Z,97548.59
2022-07-29T01:06:59.579Z,97549.00
2022-07-29T01:09:42.937Z,97552.09
2022-07-29T01:12:17.797Z,97544.09
2022-07-29T01:14:46.648Z,97546.34
2022-07-29T01:17:21.525Z,97543.28
2022-07-29T01:19:54.660Z,97549.81
2022-07-29T01:22:36.335Z,97549.81
2022-07-29T01:25:05.998Z,97551.47
2022-07-29T01:28:03.669Z,97548.59
2022-07-29T01:30:34.210Z,97544.88
2022-07-29T01:33:04.199Z,97552.69
2022-07-29T01:35:37.338Z,97542.81
2022-07-29T01:38:13.605Z,97543.22
2022-07-29T01:40:52.302Z,97546.06
2022-07-29T01:43:28.511Z,97538.69
2022-07-29T01:46:02.549Z,97544.22
2022-07-29T01:48:38.556Z,97539.28
2022-07-29T01:51:14.452Z,97539.88
2022-07-29T01:54:00.452Z,97538.41
2022-07-29T01:56:32.031Z,97539.41
2022-07-29T01:58:59.984Z,97534.03
2022-07-29T02:01:28.590Z,97534.00
2022-07-29T02:03:57.695Z,97535.19
2022-07-29T02:06:26.791Z,97531.47
2022-07-29T02:08:54.777Z,97522.47
2022-07-29T02:11:21.569Z,97522.88
2022-07-29T02:13:49.701Z,97521.59
2022-07-29T02:16:20.070Z,97514.38
2022-07-29T02:18:50.507Z,97515.44
2022-07-29T02:21:23.987Z,97519.91
2022-07-29T02:23:53.958Z,97514.53
2022-07-29T02:26:22.702Z,97516.97
2022-07-29T02:28:53.472Z,97509.56
2022-07-29T02:31:26.603Z,97513.63
2022-07-29T02:33:55.763Z,97505.81
2022-07-29T02:36:24.734Z,97505.78
2022-07-29T02:38:52.866Z,97500.41
2022-07-29T02:41:47.378Z,97500.34
2022-07-29T02:44:17.375Z,97501.78
2022-07-29T02:46:54.309Z,97505.84
2022-07-29T02:49:33.029Z,97501.72
2022-07-29T02:52:03.783Z,97498.06
2022-07-29T02:54:36.380Z,97501.56
2022-07-29T02:57:05.175Z,97496.56
2022-07-29T02:59:35.390Z,97508.00
2022-07-29T03:02:04.397Z,97512.06
2022-07-29T03:04:33.353Z,97506.50
2022-07-29T03:07:01.741Z,97513.28
2022-07-29T03:09:29.193Z,97508.78
2022-07-29T03:11:57.919Z,97510.81
2022-07-29T03:14:25.428Z,97510.97
2022-07-29T03:16:52.790Z,97508.41
2022-07-29T03:19:21.360Z,97512.28
2022-07-29T03:21:48.724Z,97504.31
2022-07-29T03:24:33.397Z,97506.16
2022-07-29T03:27:00.696Z,97515.72
2022-07-29T03:29:33.130Z,97510.66
2022-07-29T03:32:07.871Z,97512.81
2022-07-29T03:34:37.449Z,97515.03
2022-07-29T03:37:04.725Z,97513.38
2022-07-29T03:39:37.533Z,97516.03
2022-07-29T03:42:07.863Z,97515.03
2022-07-29T03:44:35.950Z,97517.88
2022-07-29T03:47:05.113Z,97516.25
2022-07-29T03:49:32.352Z,97518.44
2022-07-29T03:51:59.428Z,97518.06
2022-07-29T03:54:26.915Z,97514.41
2022-07-29T03:56:54.326Z,97521.19
2022-07-29T03:59:22.548Z,97521.34
2022-07-29T04:01:51.080Z,97522.78
2022-07-29T04:04:18.402Z,97518.69
2022-07-29T04:06:48.239Z,97537.31
2022-07-29T04:09:15.168Z,97531.44
2022-07-29T04:12:02.664Z,97526.31
2022-07-29T04:14:29.171Z,97537.31
2022-07-29T04:16:56.267Z,97527.31
2022-07-29T04:19:23.786Z,97528.97
2022-07-29T04:21:50.702Z,97530.22
2022-07-29T04:24:18.232Z,97529.47
2022-07-29T04:26:47.875Z,97527.69
2022-07-29T04:29:15.395Z,97527.94
2022-07-29T04:31:43.190Z,97525.16
2022-07-29T04:34:10.815Z,97527.66
2022-07-29T04:36:37.571Z,97524.03
2022-07-29T04:39:05.556Z,97529.06
2022-07-29T04:41:33.004Z,97532.19
2022-07-29T04:44:05.997Z,97537.56
2022-07-29T04:46:35.138Z,97542.75
2022-07-29T04:49:02.151Z,97540.72
2022-07-29T04:51:28.989Z,97540.38
2022-07-29T04:53:55.705Z,97535.72
2022-07-29T04:56:22.461Z,97537.81
2022-07-29T04:58:49.139Z,97543.41
2022-07-29T05:01:16.080Z,97540.03
2022-07-29T05:03:43.060Z,97538.41
2022-07-29T05:06:09.770Z,97544.41
2022-07-29T05:08:36.424Z,97543.19
2022-07-29T05:11:11.720Z,97542.81
2022-07-29T05:13:45.756Z,97537.47
2022-07-29T05:16:14.904Z,97541.19
2022-07-29T05:18:42.160Z,97550.03
2022-07-29T05:21:08.822Z,97547.38
2022-07-29T05:23:35.496Z,97539.56
2022-07-29T05:26:02.242Z,97543.25
2022-07-29T05:28:28.939Z,97547.75
2022-07-29T05:30:55.810Z,97548.13
2022-07-29T05:33:34.793Z,97546.25
2022-07-29T05:36:06.608Z,97542.91
2022-07-29T05:38:34.169Z,97551.47
2022-07-29T05:41:01.144Z,97546.22
2022-07-29T05:43:30.011Z,97551.88
2022-07-29T05:45:57.013Z,97542.97
2022-07-29T05:48:24.184Z,97545.53
2022-07-29T05:50:50.876Z,97547.91
2022-07-29T05:53:19.553Z,97550.63
2022-07-29T05:55:48.755Z,97551.16
2022-07-29T05:58:15.463Z,97550.13
2022-07-29T06:00:42.236Z,97545.59
2022-07-29T06:03:08.947Z,97547.59
2022-07-29T06:05:35.700Z,97548.75
2022-07-29T06:08:02.515Z,97550.88
2022-07-29T06:10:29.433Z,97552.06
2022-07-29T06:12:56.151Z,97554.09
2022-07-29T06:15:22.855Z,97557.06
2022-07-29T06:17:59.132Z,97557.13
2022-07-29T06:20:27.840Z,97551.09
2022-07-29T06:22:54.593Z,97553.41
2022-07-29T06:25:21.325Z,97552.97
2022-07-29T06:27:47.971Z,97541.59
2022-07-29T06:30:15.036Z,97554.22
2022-07-29T06:32:43.389Z,97551.44
2022-07-29T06:35:37.828Z,97549.38
2022-07-29T06:37:59.570Z,97551.78
2022-07-29T06:40:45.451Z,97555.56
2022-07-29T06:43:12.187Z,97556.28
2022-07-29T06:45:42.174Z,97544.53
2022-07-29T06:48:09.914Z,97544.13
2022-07-29T06:50:36.900Z,97550.75
2022-07-29T06:53:04.211Z,97542.78
2022-07-29T06:55:30.963Z,97546.16
2022-07-29T06:57:57.579Z,97539.19
2022-07-29T07:00:26.963Z,97545.03
2022-07-29T07:02:53.633Z,97542.34
2022-07-29T07:05:20.622Z,97554.31
2022-07-29T07:07:47.309Z,97554.50
2022-07-29T07:10:16.236Z,97548.97
2022-07-29T07:12:42.948Z,97549.03
2022-07-29T07:15:10.125Z,97550.50
2022-07-29T07:17:36.831Z,97549.91
2022-07-29T07:20:03.925Z,97542.81
2022-07-29T07:22:33.415Z,97545.25
2022-07-29T07:25:02.398Z,97543.09
2022-07-29T07:27:29.279Z,97551.81
2022-07-29T07:29:55.915Z,97554.28
2022-07-29T07:32:22.649Z,97552.38
2022-07-29T07:34:49.427Z,97545.84
2022-07-29T07:37:16.186Z,97547.41
2022-07-29T07:39:42.930Z,97547.94
2022-07-29T07:42:11.351Z,97549.50
2022-07-29T07:44:57.326Z,97554.75
2022-07-29T07:47:25.625Z,97545.88
2022-07-29T07:49:54.775Z,97549.09
2022-07-29T07:52:22.556Z,97549.88
2022-07-29T07:54:49.456Z,97542.59
2022-07-29T07:57:16.783Z,97541.41
2022-07-29T07:59:43.676Z,97544.00
2022-07-29T08:02:10.764Z,97542.41
2022-07-29T08:04:37.759Z,97545.50
2022-07-29T08:07:04.679Z,97544.59
2022-07-29T08:09:31.436Z,97552.00
2022-07-29T08:12:00.501Z,97540.53
2022-07-29T08:14:27.147Z,97537.41
2022-07-29T08:16:54.715Z,97553.59
2022-07-29T08:19:21.585Z,97540.50
2022-07-29T08:21:48.739Z,97545.66
2022-07-29T08:24:33.935Z,97552.84
2022-07-29T08:27:00.758Z,97546.34
2022-07-29T08:29:27.455Z,97549.31
2022-07-29T08:31:54.584Z,97548.19
2022-07-29T08:34:25.715Z,97555.16
2022-07-29T08:36:54.629Z,97560.75
2022-07-29T08:39:21.294Z,97559.53
2022-07-29T08:41:48.786Z,97562.34
2022-07-29T08:44:30.721Z,97561.94
2022-07-29T08:46:58.412Z,97564.56
2022-07-29T08:49:25.312Z,97560.69
2022-07-29T08:51:54.967Z,97562.72
2022-07-29T08:54:24.403Z,97571.00
2022-07-29T08:56:52.065Z,97567.63
2022-07-29T08:59:23.723Z,97576.09
2022-07-29T09:01:53.770Z,97576.97
2022-07-29T09:04:22.055Z,97577.47
2022-07-29T09:06:52.321Z,97578.38
2022-07-29T09:09:19.131Z,97571.72
2022-07-29T09:11:45.982Z,97577.03
2022-07-29T09:14:14.672Z,97569.16
2022-07-29T09:16:58.143Z,97576.38
2022-07-29T09:19:32.303Z,97582.59
2022-07-29T09:22:01.176Z,97585.06
2022-07-29T09:24:48.501Z,97574.00
2022-07-29T09:27:27.578Z,97589.13
2022-07-29T09:30:04.822Z,97586.63
2022-07-29T09:32:32.008Z,97590.13
2022-07-29T09:35:21.739Z,97588.50
2022-07-29T09:37:48.744Z,97587.41
2022-07-29T09:40:18.530Z,97588.50
2022-07-29T09:42:45.636Z,97585.44
2022-07-29T09:45:13.445Z,97580.72
2022-07-29T09:47:49.851Z,97583.75
2022-07-29T09:50:17.308Z,97575.75
2022-07-29T09:52:52.533Z,97577.03
2022-07-29T09:55:19.930Z,97572.72
2022-07-29T09:57:47.952Z,97581.06
2022-07-29T10:00:19.932Z,97588.28
2022-07-29T10:02:47.146Z,97585.78
2022-07-29T10:05:24.159Z,97589.88
2022-07-29T10:07:54.308Z,97590.66
2022-07-29T10:10:31.754Z,97588.13
2022-07-29T10:13:07.831Z,97581.16
2022-07-29T10:15:40.043Z,97575.94
2022-07-29T10:18:10.142Z,97573.81
2022-07-29T10:20:37.991Z,97571.63
2022-07-29T10:23:05.578Z,97578.50
2022-07-29T10:25:32.826Z,97570.00
2022-07-29T10:28:00.087Z,97572.72
2022-07-29T10:30:28.534Z,97571.31
2022-07-29T10:33:01.274Z,97567.47
2022-07-29T10:36:06.506Z,97565.44
2022-07-29T10:38:48.407Z,97567.22
2022-07-29T10:41:43.730Z,97564.19
2022-07-29T10:44:23.143Z,97557.97
2022-07-29T10:46:52.345Z,97557.72
2022-07-29T10:49:25.096Z,97560.28
2022-07-29T10:52:02.674Z,97557.25
2022-07-29T10:54:36.333Z,97562.56
2022-07-29T10:57:53.775Z,97557.00
2022-07-29T11:00:17.070Z,97546.13
2022-07-29T11:02:46.925Z,97553.97
2022-07-29T11:05:21.868Z,97549.91
2022-07-29T11:08:20.116Z,97551.50
2022-07-29T11:10:49.854Z,97553.69
2022-07-29T11:14:01.557Z,97542.75
2022-07-29T11:17:05.921Z,97537.00
2022-07-29T11:19:34.391Z,97536.47
2022-07-29T11:22:02.788Z,97536.09
2022-07-29T11:24:33.090Z,97533.38
2022-07-29T11:27:18.373Z,97535.78
2022-07-29T11:29:58.554Z,97528.41
2022-07-29T11:32:29.194Z,97529.72
2022-07-29T11:35:22.291Z,97528.78
2022-07-29T11:38:23.628Z,97531.53
2022-07-29T11:41:18.490Z,97529.44
2022-07-29T11:46:49.697Z,97524.75
2022-07-29T11:49:31.982Z,97522.72
2022-07-29T11:52:02.495Z,97524.41
2022-07-29T11:54:38.956Z,97517.13
2022-07-29T11:57:22.895Z,97522.78
2022-07-29T12:00:12.667Z,97520.34
2022-07-29T12:02:48.616Z,97525.81
2022-07-29T12:05:23.993Z,97525.75
2022-07-29T12:08:14.727Z,97525.00
2022-07-29T12:10:43.066Z,97525.22
2022-07-29T12:13:11.589Z,97523.00
2022-07-29T12:15:47.241Z,97514.78
2022-07-29T12:18:18.337Z,97517.94
2022-07-29T12:20:46.536Z,97520.63
2022-07-29T12:23:13.914Z,97522.72
2022-07-29T12:25:44.543Z,97515.97
2022-07-29T12:28:27.578Z,97510.16
2022-07-29T12:30:54.838Z,97512.56
2022-07-29T12:33:31.001Z,97511.13
2022-07-29T12:36:07.306Z,97516.56
2022-07-29T12:38:41.230Z,97513.31
2022-07-29T12:41:07.998Z,97506.22
2022-07-29T12:43:34.929Z,97511.06
2022-07-29T12:46:13.829Z,97509.94
2022-07-29T12:48:42.909Z,97504.22
2022-07-29T12:51:11.070Z,97510.97
2022-07-29T12:53:38.919Z,97516.38
2022-07-29T12:56:20.524Z,97510.84
2022-07-29T12:58:53.744Z,97508.59
2022-07-29T13:01:21.832Z,97505.31
2022-07-29T13:03:57.424Z,97490.97
2022-07-29T13:06:50.914Z,97492.78
2022-07-29T13:09:20.470Z,97500.84
2022-07-29T13:11:54.414Z,97497.56
2022-07-29T13:14:37.859Z,97494.44
2022-07-29T13:17:19.132Z,97496.34
2022-07-29T13:19:54.112Z,97495.59
2022-07-29T13:22:23.912Z,97500.59
2022-07-29T13:24:58.447Z,97493.84
2022-07-29T13:27:27.112Z,97486.81
2022-07-29T13:29:57.467Z,97479.56
2022-07-29T13:32:28.404Z,97473.38
2022-07-29T13:34:57.520Z,97480.13
2022-07-29T13:37:25.039Z,97479.31
2022-07-29T13:39:53.357Z,97476.44
2022-07-29T13:42:20.641Z,97477.25
2022-07-29T13:44:49.589Z,97474.38
2022-07-29T13:47:17.208Z,97477.88
2022-07-29T13:49:43.890Z,97460.66
2022-07-29T13:52:11.090Z,97468.50
2022-07-29T13:54:42.386Z,97455.09
2022-07-29T13:57:11.746Z,97462.72
2022-07-29T13:59:41.772Z,97465.44
2022-07-29T14:02:09.897Z,97452.22
2022-07-29T14:04:36.871Z,97452.91
2022-07-29T14:07:07.306Z,97443.56
2022-07-29T14:09:40.995Z,97440.84
2022-07-29T14:12:08.930Z,97436.84
2022-07-29T14:14:37.348Z,97438.50
2022-07-29T14:17:04.715Z,97438.78
2022-07-29T14:19:33.047Z,97435.22
2022-07-29T14:22:00.202Z,97434.38
2022-07-29T14:24:27.426Z,97427.31
2022-07-29T14:26:54.194Z,97432.00
2022-07-29T14:29:21.063Z,97427.50
2022-07-29T14:31:47.765Z,97425.81
2022-07-29T14:34:16.427Z,97425.66
2022-07-29T14:36:43.286Z,97427.69
2022-07-29T14:39:09.947Z,97435.53
2022-07-29T14:41:36.785Z,97422.50
2022-07-29T14:44:03.775Z,97430.84
2022-07-29T14:46:30.532Z,97426.94
2022-07-29T14:48:57.431Z,97419.66
2022-07-29T14:51:24.282Z,97421.56
2022-07-29T14:53:59.164Z,97417.03
2022-07-29T14:56:46.813Z,97425.06
2022-07-29T14:59:12.468Z,97410.91
2022-07-29T15:01:39.194Z,97411.97
2022-07-29T15:04:05.946Z,97404.13
2022-07-29T15:06:32.660Z,97405.19
2022-07-29T15:08:59.399Z,97398.50
2022-07-29T15:11:26.477Z,97400.13
2022-07-29T15:13:53.338Z,97393.44
2022-07-29T15:16:20.154Z,97385.59
2022-07-29T15:18:46.904Z,97387.25
2022-07-29T15:21:13.571Z,97380.50
2022-07-29T15:23:40.316Z,97386.00
2022-07-29T15:26:06.987Z,97374.84
2022-07-29T15:28:33.750Z,97377.06
2022-07-29T15:31:00.402Z,97378.47
2022-07-29T15:33:27.404Z,97370.09
2022-07-29T15:35:54.110Z,97364.13
2022-07-29T15:38:20.856Z,97375.56
2022-07-29T15:40:55.826Z,97371.19
2022-07-29T15:43:22.824Z,97371.78
2022-07-29T15:46:08.687Z,97369.59
2022-07-29T15:48:39.245Z,97366.59
2022-07-29T15:51:06.071Z,97367.16
2022-07-29T15:53:33.095Z,97364.44
2022-07-29T15:56:02.145Z,97354.13
2022-07-29T15:58:28.903Z,97348.44
2022-07-29T16:00:55.800Z,97352.78
2022-07-29T16:03:22.991Z,97349.25
2022-07-29T16:05:49.754Z,97342.75
2022-07-29T16:08:18.924Z,97345.19
2022-07-29T16:10:45.620Z,97348.97
2022-07-29T16:13:12.265Z,97345.69
2022-07-29T16:15:45.165Z,97345.69
2022-07-29T16:18:30.303Z,97344.00
2022-07-29T16:20:57.311Z,97346.72
2022-07-29T16:23:24.742Z,97338.59
2022-07-29T16:25:59.707Z,97347.22
2022-07-29T16:28:27.851Z,97333.91
2022-07-29T16:30:54.687Z,97330.16
2022-07-29T16:33:21.399Z,97327.41
2022-07-29T16:35:48.115Z,97327.13
2022-07-29T16:38:14.848Z,97330.88
2022-07-29T16:40:42.109Z,97327.06
2022-07-29T16:43:09.066Z,97328.59
2022-07-29T16:45:45.145Z,97321.28
2022-07-29T16:48:14.078Z,97326.94
2022-07-29T16:50:41.208Z,97329.09
2022-07-29T16:53:10.476Z,97332.53
2022-07-29T16:55:37.326Z,97332.47
2022-07-29T16:58:04.035Z,97331.56
2022-07-29T17:00:30.843Z,97327.41
2022-07-29T17:02:57.779Z,97320.50
2022-07-29T17:05:24.512Z,97322.00
2022-07-29T17:07:51.197Z,97328.81
2022-07-29T17:10:18.021Z,97327.56
2022-07-29T17:12:44.764Z,97329.53
2022-07-29T17:15:12.232Z,97331.53
2022-07-29T17:17:55.288Z,97327.06
2022-07-29T17:20:23.866Z,97320.41
2022-07-29T17:22:50.566Z,97331.13
2022-07-29T17:25:21.073Z,97326.25
2022-07-29T17:27:50.441Z,97319.22
2022-07-29T17:30:17.942Z,97330.00
2022-07-29T17:32:44.725Z,97321.84
2022-07-29T17:35:30.112Z,97322.19
2022-07-29T17:37:57.184Z,97329.66
2022-07-29T17:40:23.902Z,97330.16
2022-07-29T17:42:50.573Z,97332.78
2022-07-29T17:45:17.386Z,97323.00
2022-07-29T17:47:45.515Z,97325.03
2022-07-29T17:50:12.162Z,97331.16
2022-07-29T17:52:39.227Z,97328.97
2022-07-29T17:55:07.258Z,97332.25
2022-07-29T17:57:34.253Z,97327.06
2022-07-29T18:00:01.104Z,97333.84
2022-07-29T18:02:28.485Z,97324.22
2022-07-29T18:04:55.385Z,97333.16
2022-07-29T18:07:22.139Z,97323.28
2022-07-29T18:09:48.806Z,97325.31
2022-07-29T18:12:16.036Z,97330.97
2022-07-29T18:14:42.743Z,97321.66
2022-07-29T18:17:09.416Z,97324.63
2022-07-29T18:19:36.163Z,97322.88
2022-07-29T18:22:05.322Z,97328.56
2022-07-29T18:24:32.764Z,97323.63
2022-07-29T18:26:59.848Z,97318.75
2022-07-29T18:29:29.012Z,97317.56
2022-07-29T18:31:56.364Z,97314.78
2022-07-29T18:34:23.161Z,97316.75
2022-07-29T18:36:49.890Z,97316.66
2022-07-29T18:39:20.736Z,97321.94
2022-07-29T18:41:50.153Z,97330.22
2022-07-29T18:44:21.665Z,97325.56
2022-07-29T18:46:49.073Z,97326.03
2022-07-29T18:49:16.005Z,97336.78
2022-07-29T18:51:42.844Z,97335.81
2022-07-29T18:54:10.547Z,97335.72
2022-07-29T18:56:37.432Z,97337.50
2022-07-29T18:59:04.916Z,97353.25
2022-07-29T19:01:32.284Z,97359.91
2022-07-29T19:03:59.802Z,97358.25
2022-07-29T19:06:26.622Z,97367.84
2022-07-29T19:08:53.656Z,97377.41
2022-07-29T19:11:20.336Z,97380.78
2022-07-29T19:13:49.323Z,97376.69
2022-07-29T19:16:16.094Z,97378.78
2022-07-29T19:18:43.597Z,97382.53
2022-07-29T19:21:11.164Z,97374.72
2022-07-29T19:24:01.390Z,97387.06
2022-07-29T19:26:26.261Z,97384.38
2022-07-29T19:28:53.352Z,97380.53
2022-07-29T19:31:20.210Z,97402.72
2022-07-29T19:33:47.053Z,97405.03
2022-07-29T19:36:13.765Z,97404.44
2022-07-29T19:38:40.534Z,97404.22
2022-07-29T19:41:07.321Z,97412.50
2022-07-29T19:43:50.431Z,97415.19
2022-07-29T19:46:22.916Z,97413.78
2022-07-29T19:48:50.040Z,97424.53
2022-07-29T19:51:17.620Z,97427.47
2022-07-29T19:53:44.415Z,97439.25
2022-07-29T19:56:11.147Z,97450.50
2022-07-29T19:58:39.163Z,97457.88
2022-07-29T20:01:10.506Z,97461.06
2022-07-29T20:03:39.960Z,97475.41
2022-07-29T20:06:07.564Z,97479.50
2022-07-29T20:08:34.670Z,97497.28
2022-07-29T20:11:01.789Z,97503.16
2022-07-29T20:13:31.251Z,97506.47
2022-07-29T20:15:58.250Z,97505.31
2022-07-29T20:18:25.041Z,97512.66
2022-07-29T20:20:51.897Z,97518.25
2022-07-29T20:23:19.386Z,97535.63
2022-07-29T20:25:47.183Z,97526.50
2022-07-29T20:28:14.300Z,97526.28
2022-07-29T20:30:41.726Z,97543.69
2022-07-29T20:33:08.460Z,97539.28
2022-07-29T20:35:35.142Z,97536.50
2022-07-29T20:38:01.930Z,97541.09
2022-07-29T20:40:29.300Z,97545.66
2022-07-29T20:42:56.145Z,97534.41
2022-07-29T20:45:23.577Z,97533.38
2022-07-29T20:47:51.925Z,97524.72
2022-07-29T20:50:20.613Z,97510.59
2022-07-29T20:52:51.182Z,97496.44
2022-07-29T20:55:17.988Z,97496.63
2022-07-29T20:57:44.676Z,97490.06
2022-07-29T21:00:11.940Z,97495.22
2022-07-29T21:02:39.045Z,97473.00
2022-07-29T21:05:06.519Z,97472.81
2022-07-29T21:07:33.415Z,97463.97
2022-07-29T21:10:00.180Z,97463.78
2022-07-29T21:12:28.615Z,97459.47
2022-07-29T21:14:55.387Z,97457.84
2022-07-29T21:17:22.729Z,97452.25
2022-07-29T21:19:52.739Z,97455.78
2022-07-29T21:22:21.900Z,97444.69
2022-07-29T21:24:49.232Z,97442.44
2022-07-29T21:27:34.524Z,97455.56
2022-07-29T21:30:01.438Z,97465.59
2022-07-29T21:32:31.164Z,97456.81
2022-07-29T21:34:58.603Z,97449.59
2022-07-29T21:37:25.553Z,97455.38
2022-07-29T21:39:53.647Z,97452.47
2022-07-29T21:42:20.404Z,97458.59
2022-07-29T21:44:47.285Z,97461.88
2022-07-29T21:47:14.103Z,97447.53
2022-07-29T21:49:40.756Z,97449.78
2022-07-29T21:52:08.051Z,97453.25
2022-07-29T21:54:35.842Z,97440.94
2022-07-29T21:57:05.002Z,97438.91
2022-07-29T21:59:32.017Z,97447.91
2022-07-29T22:02:01.719Z,97439.09
2022-07-29T22:04:29.610Z,97435.19
2022-07-29T22:06:57.745Z,97429.84
2022-07-29T22:09:25.416Z,97424.53
2022-07-29T22:11:52.284Z,97414.28
2022-07-29T22:14:19.191Z,97420.38
2022-07-29T22:16:46.509Z,97431.44
2022-07-29T22:19:14.668Z,97432.69
2022-07-29T22:21:41.854Z,97433.50
2022-07-29T22:24:09.897Z,97431.88
2022-07-29T22:26:37.883Z,97430.19
2022-07-29T22:29:04.611Z,97434.09
2022-07-29T22:31:31.630Z,97427.94
2022-07-29T22:33:58.357Z,97419.31
2022-07-29T22:36:25.930Z,97410.91
2022-07-29T22:38:52.683Z,97404.94
2022-07-29T22:41:19.386Z,97402.66
2022-07-29T22:43:46.111Z,97394.06
2022-07-29T22:46:12.941Z,97395.72
2022-07-29T22:48:39.695Z,97382.78
2022-07-29T22:51:06.442Z,97385.66
2022-07-29T22:53:33.174Z,97384.25
2022-07-29T22:55:59.934Z,97371.75
2022-07-29T22:58:26.636Z,97372.13
2022-07-29T23:00:53.480Z,97375.63
2022-07-29T23:03:20.702Z,97368.63
2022-07-29T23:05:47.481Z,97371.53
2022-07-29T23:08:14.177Z,97369.47
2022-07-29T23:10:40.826Z,97367.78
2022-07-29T23:13:07.511Z,97363.88
2022-07-29T23:15:34.317Z,97368.34
2022-07-29T23:18:00.977Z,97368.94
2022-07-29T23:20:28.026Z,97367.28
2022-07-29T23:22:54.944Z,97364.63
2022-07-29T23:25:21.668Z,97357.88
2022-07-29T23:27:48.526Z,97357.06
2022-07-29T23:30:15.368Z,97360.13
2022-07-29T23:32:42.082Z,97354.44
2022-07-29T23:35:09.298Z,97358.75
2022-07-29T23:37:36.653Z,97360.41
2022-07-29T23:40:04.929Z,97360.00
2022-07-29T23:42:31.629Z,97359.19
2022-07-29T23:44:58.291Z,97356.88
2022-07-29T23:47:25.017Z,97361.84
2022-07-29T23:49:51.727Z,97358.31
2022-07-29T23:52:18.503Z,97358.31
2022-07-29T23:54:45.230Z,97353.84
2022-07-29T23:57:12.042Z,97354.22
2022-07-29T23:59:38.831Z,97356.06
